TimeEDT,TemperatureF,Dew PointF,Humidity,Sea Level PressureIn,VisibilityMPH,Wind Direction,Wind SpeedMPH,Gust SpeedMPH,PrecipitationIn,Events,Conditions,WindDirDegrees,DateUTC
12:53 AM,61.0,57.9,90,30.16,3.0,ESE,10.4,-,N/A,,Overcast,110,2012-10-25 04:53:00
1:08 AM,60.8,57.2,88,30.16,3.0,ESE,8.1,-,N/A,,Overcast,110,2012-10-25 05:08:00
1:21 AM,60.8,57.2,88,30.17,2.5,ESE,8.1,-,N/A,,Overcast,120,2012-10-25 05:21:00
1:50 AM,60.8,57.2,88,30.17,3.0,ESE,5.8,-,N/A,,Overcast,110,2012-10-25 05:50:00
1:53 AM,60.1,57.0,90,30.17,3.0,ESE,6.9,-,N/A,,Overcast,120,2012-10-25 05:53:00
2:53 AM,59.0,57.0,93,30.17,3.0,East,5.8,-,N/A,,Overcast,90,2012-10-25 06:53:00
3:01 AM,59.0,57.2,94,30.18,2.5,East,5.8,-,N/A,,Overcast,90,2012-10-25 07:01:00
3:50 AM,57.2,57.2,100,30.17,2.0,ESE,5.8,-,N/A,,Overcast,110,2012-10-25 07:50:00
3:53 AM,57.9,57.0,97,30.17,2.0,East,5.8,-,N/A,,Overcast,90,2012-10-25 07:53:00
4:07 AM,57.2,57.2,100,30.17,1.8,East,5.8,-,N/A,,Overcast,100,2012-10-25 08:07:00
4:53 AM,57.9,57.0,97,30.17,1.5,East,4.6,-,N/A,,Overcast,100,2012-10-25 08:53:00
5:53 AM,57.9,57.0,97,30.19,1.0,ESE,4.6,-,N/A,,Overcast,110,2012-10-25 09:53:00
6:53 AM,57.9,57.0,97,30.20,1.0,ESE,3.5,-,N/A,,Overcast,120,2012-10-25 10:53:00
7:53 AM,57.9,57.0,97,30.21,1.0,ESE,3.5,-,N/A,,Overcast,120,2012-10-25 11:53:00
8:00 AM,57.2,57.2,100,30.22,0.8,ESE,4.6,-,N/A,,Overcast,120,2012-10-25 12:00:00
8:15 AM,57.2,55.4,94,30.22,1.2,ESE,4.6,-,N/A,,Overcast,120,2012-10-25 12:15:00
8:40 AM,57.2,55.4,94,30.22,1.5,SE,5.8,-,N/A,,Overcast,130,2012-10-25 12:40:00
8:53 AM,57.9,55.9,93,30.22,1.8,SE,5.8,-,N/A,,Overcast,130,2012-10-25 12:53:00
9:27 AM,57.2,55.4,94,30.23,2.0,ESE,4.6,-,N/A,,Overcast,120,2012-10-25 13:27:00
9:53 AM,59.0,55.9,90,30.23,2.5,ESE,4.6,-,N/A,,Overcast,120,2012-10-25 13:53:00
10:13 AM,59.0,55.4,88,30.24,3.0,SE,5.8,-,N/A,,Overcast,130,2012-10-25 14:13:00
10:53 AM,59.0,55.9,90,30.24,4.0,SE,8.1,-,N/A,,Overcast,130,2012-10-25 14:53:00
11:53 AM,59.0,55.9,90,30.23,3.0,ESE,4.6,-,N/A,,Overcast,120,2012-10-25 15:53:00
12:44 PM,60.8,55.4,82,30.23,4.0,ESE,4.6,-,N/A,,Overcast,120,2012-10-25 16:44:00
12:53 PM,60.1,55.9,86,30.22,4.0,ESE,5.8,-,N/A,,Overcast,120,2012-10-25 16:53:00
1:53 PM,61.0,55.9,83,30.22,3.0,SE,4.6,-,N/A,,Haze,130,2012-10-25 17:53:00
2:53 PM,60.1,55.9,86,30.21,3.0,SE,8.1,-,N/A,,Overcast,130,2012-10-25 18:53:00
3:53 PM,61.0,55.9,83,30.21,3.0,SE,6.9,-,N/A,,Haze,140,2012-10-25 19:53:00
4:53 PM,61.0,55.9,83,30.20,4.0,SE,5.8,-,N/A,,Haze,130,2012-10-25 20:53:00
5:01 PM,60.8,55.4,82,30.21,4.0,SE,4.6,-,N/A,,Haze,130,2012-10-25 21:01:00
5:53 PM,61.0,57.0,87,30.21,4.0,ESE,3.5,-,N/A,,Overcast,110,2012-10-25 21:53:00
6:53 PM,61.0,55.9,83,30.21,4.0,ESE,3.5,-,N/A,,Haze,120,2012-10-25 22:53:00
7:53 PM,60.1,55.9,86,30.22,4.0,East,3.5,-,N/A,,Overcast,90,2012-10-25 23:53:00
9:53 PM,60.1,55.9,86,30.21,4.0,ESE,5.8,-,N/A,,Overcast,110,2012-10-26 01:53:00
10:53 PM,60.1,55.9,86,30.20,4.0,ESE,5.8,-,N/A,,Overcast,120,2012-10-26 02:53:00